Etusivu
METAR-TAF:

METAR-TAF

Lentoasemat :

Huippuvuorten lentoasema

Longyearbyen, Norja

Leveyspiiri: 78-15N, Pituuspiiri: 015-28E, korkeus merenpinnasta: 2 m

Tämänhetkinen sää

Tämä raportti tehtiin 21 minuuttia sitten, kello 18.20 UTC
Tuuli 6 kn pohjoisen/luoteesta
Lämpötila -2°C
Kosteus 74%
Ilmanpaine 1029 hPa
Näkyvyys 10 km tai enemmän
Hajonneita pilviä 2000 ft:n korkeudessa

METAR: ENSB 201820Z 34006KT 9999 BKN020 M02/M06 Q1029 RMK WIND 1400FT 34005KT

Aika: 20:41 (18:41 UTC)

Sääennuste

Ennuste voimassa 20. päivästä klo 18 UTC - 21. päivään klo 18 UTC
Tuuli 8 kn pohjoisesta
Näkyvyys 10 km tai enemmän
Hajonneita pilviä 2000 ft:n korkeudessa

TAF: ENSB 2018/2118 36008KT 9999 BKN020

Säähavainnot ja -ennusteet yli 4000 lentoasemalta (METAR- ja TAF-raportit).

Käytössä olevat sääasemat on merkitty karttaan keltaisilla ja punaisilla pisteillä.

Aseta hiiri pisteen päälle nähdäksesi sääaseman nimen.

Klikkaa sitten nähdäksesi säähavainnot ja -ennusteet.

Kartan vaihtaminen: klikkaa mustalla rastilla varustettuja vihreitä pisteitä, niin voit zoomata sisään; viivalla varustettua vihreää pistettä, niin voit zoomata ulos tai vihreitä nuolia, niin pääset viereisille kartoille.


METAR-TAF: